Time;durP1;ratioP1;P1;durP2;ratioP2;P2;SDS_P1;SDS_P2;PMS_P1;PMS_P2;Temp;Humidity;BMP_temperature;BMP_pressure;BME280_temperature;BME280_humidity;BME280_pressure;Samples;Min_cycle;Max_cycle;Signal;HPM_P1;HPM_P2
2023/03/06 00:00:09;;;;;;;2.00;1.48;;;;;;;;;;1038393;28;20029;-56
2023/03/06 00:00:42;;;;;;;2.05;1.40;;;;;;;;;;1038887;28;20075;-56
2023/03/06 00:01:15;;;;;;;1.92;1.40;;;;;;;;;;1038228;28;20025;-55
2023/03/06 00:01:47;;;;;;;1.65;1.33;;;;;;;;;;1038841;28;20057;-55
2023/03/06 00:02:18;;;;;;;2.03;1.55;;;;;;;;;;1038557;28;20049;-55
2023/03/06 00:02:49;;;;;;;2.40;1.38;;;;;;;;;;1038017;28;20052;-56
2023/03/06 00:03:21;;;;;;;2.20;1.52;;;;;;;;;;1038320;28;20111;-55
2023/03/06 00:03:53;;;;;;;1.88;1.38;;;;;;;;;;1037736;28;20083;-56
2023/03/06 00:04:24;;;;;;;2.17;1.20;;;;;;;;;;1038247;28;20047;-56
2023/03/06 00:04:55;;;;;;;1.88;1.50;;;;;;;;;;1037846;28;20105;-55
2023/03/06 00:05:27;;;;;;;2.15;1.40;;;;;;;;;;1038765;28;20029;-56
2023/03/06 00:05:58;;;;;;;1.88;1.58;;;;;;;;;;1038559;28;20071;-56
2023/03/06 00:06:29;;;;;;;1.73;1.42;;;;;;;;;;1038579;28;20021;-56
2023/03/06 00:06:59;;;;;;;1.65;1.20;;;;;;;;;;1037905;28;20033;-55
2023/03/06 00:07:30;;;;;;;2.33;1.30;;;;;;;;;;1038178;28;20017;-55
2023/03/06 00:08:01;;;;;;;2.55;1.45;;;;;;;;;;1037808;28;20328;-55
2023/03/06 00:08:32;;;;;;;1.45;1.20;;;;;;;;;;1038470;28;20045;-55
2023/03/06 00:09:03;;;;;;;2.30;1.47;;;;;;;;;;1037870;28;20661;-56
2023/03/06 00:09:34;;;;;;;1.77;1.00;;;;;;;;;;1038854;28;20345;-56
2023/03/06 00:10:06;;;;;;;2.03;1.37;;;;;;;;;;1037494;28;20268;-55
2023/03/06 00:10:37;;;;;;;1.35;1.10;;;;;;;;;;1038115;28;20358;-55
2023/03/06 00:11:08;;;;;;;1.83;1.40;;;;;;;;;;1037211;28;20523;-56
2023/03/06 00:11:38;;;;;;;1.40;1.30;;;;;;;;;;1038086;28;20147;-55
2023/03/06 00:12:10;;;;;;;2.10;1.30;;;;;;;;;;1037847;28;20022;-56
2023/03/06 00:12:41;;;;;;;2.38;1.33;;;;;;;;;;1038068;28;20714;-55
2023/03/06 00:13:13;;;;;;;2.17;1.40;;;;;;;;;;1038201;28;20389;-55
2023/03/06 00:13:44;;;;;;;2.50;1.30;;;;;;;;;;1037492;28;20484;-55
2023/03/06 00:14:15;;;;;;;1.90;1.38;;;;;;;;;;1037953;28;20501;-55
2023/03/06 00:14:46;;;;;;;2.80;1.60;;;;;;;;;;1038390;28;20021;-55
2023/03/06 00:15:17;;;;;;;1.97;1.40;;;;;;;;;;1038159;28;20118;-55
2023/03/06 00:15:48;;;;;;;4.72;1.45;;;;;;;;;;1037614;28;20263;-55
2023/03/06 00:16:19;;;;;;;1.67;1.40;;;;;;;;;;1037552;28;20029;-56
2023/03/06 00:16:54;;;;;;;1.77;1.50;;;;;;;;;;1037934;28;20037;-55
2023/03/06 00:17:27;;;;;;;2.92;1.70;;;;;;;;;;1037817;28;20264;-56
2023/03/06 00:17:58;;;;;;;2.05;1.48;;;;;;;;;;1038064;28;20036;-55
2023/03/06 00:18:29;;;;;;;1.75;1.30;;;;;;;;;;1039069;28;20040;-56
2023/03/06 00:19:00;;;;;;;2.38;1.63;;;;;;;;;;1037744;28;20159;-56
2023/03/06 00:19:31;;;;;;;2.30;1.60;;;;;;;;;;1037931;28;20075;-55
2023/03/06 00:20:02;;;;;;;3.00;1.42;;;;;;;;;;1038885;28;20512;-56
2023/03/06 00:20:33;;;;;;;3.00;1.70;;;;;;;;;;1038032;28;20029;-56
2023/03/06 00:21:07;;;;;;;3.17;1.50;;;;;;;;;;1038052;28;20021;-55
2023/03/06 00:21:41;;;;;;;4.03;1.80;;;;;;;;;;1037948;28;20590;-56
2023/03/06 00:22:13;;;;;;;1.55;1.20;;;;;;;;;;1038009;28;20025;-56
2023/03/06 00:22:45;;;;;;;1.83;1.60;;;;;;;;;;1037816;28;20178;-55
2023/03/06 00:23:16;;;;;;;2.97;1.65;;;;;;;;;;1037705;28;20021;-56
2023/03/06 00:23:47;;;;;;;1.52;1.35;;;;;;;;;;1038014;28;20026;-55
2023/03/06 00:24:18;;;;;;;2.23;1.50;;;;;;;;;;1038389;28;20026;-55
2023/03/06 00:24:49;;;;;;;2.28;1.50;;;;;;;;;;1037685;28;20272;-55
2023/03/06 00:25:20;;;;;;;2.80;1.60;;;;;;;;;;1038022;28;20022;-55
2023/03/06 00:25:51;;;;;;;1.88;1.40;;;;;;;;;;1037601;28;20692;-55
2023/03/06 00:26:22;;;;;;;1.52;1.30;;;;;;;;;;1038369;28;20489;-55
2023/03/06 00:26:53;;;;;;;1.47;1.37;;;;;;;;;;1038934;28;20037;-55
2023/03/06 00:27:25;;;;;;;2.03;1.70;;;;;;;;;;1037588;28;20715;-56
2023/03/06 00:27:56;;;;;;;2.30;1.40;;;;;;;;;;1037270;28;20037;-56
2023/03/06 00:28:29;;;;;;;3.05;1.60;;;;;;;;;;1039008;28;20116;-56
2023/03/06 00:29:00;;;;;;;2.28;1.63;;;;;;;;;;1036945;28;20511;-56
2023/03/06 00:29:31;;;;;;;2.38;1.65;;;;;;;;;;1037686;28;20159;-55
2023/03/06 00:30:02;;;;;;;2.25;1.70;;;;;;;;;;1038389;28;20029;-55
2023/03/06 00:30:33;;;;;;;2.00;1.55;;;;;;;;;;1038517;28;20356;-55
2023/03/06 00:31:05;;;;;;;2.90;1.42;;;;;;;;;;1037846;28;20695;-55
2023/03/06 00:31:35;;;;;;;2.35;1.50;;;;;;;;;;1038283;28;20029;-55
2023/03/06 00:32:07;;;;;;;2.07;1.37;;;;;;;;;;1037255;28;20028;-55
2023/03/06 00:32:38;;;;;;;1.67;1.50;;;;;;;;;;1037603;28;20279;-56
2023/03/06 00:33:09;;;;;;;2.67;1.52;;;;;;;;;;1038207;28;20029;-55
2023/03/06 00:33:42;;;;;;;1.85;1.65;;;;;;;;;;1037227;28;20021;-56
2023/03/06 00:34:13;;;;;;;4.55;1.95;;;;;;;;;;1037402;28;20100;-55
2023/03/06 00:34:47;;;;;;;2.00;1.80;;;;;;;;;;1037155;28;20487;-55
2023/03/06 00:35:18;;;;;;;1.92;1.40;;;;;;;;;;1036645;28;20017;-55
2023/03/06 00:35:49;;;;;;;1.95;1.35;;;;;;;;;;1037384;28;20115;-56
2023/03/06 00:36:20;;;;;;;2.17;1.47;;;;;;;;;;1036486;28;20030;-55
2023/03/06 00:36:52;;;;;;;2.33;1.40;;;;;;;;;;1037771;28;20324;-55
2023/03/06 00:37:23;;;;;;;2.13;1.60;;;;;;;;;;1037250;28;20259;-55
2023/03/06 00:37:56;;;;;;;1.23;1.13;;;;;;;;;;1037872;28;20350;-55
2023/03/06 00:38:30;;;;;;;1.65;1.45;;;;;;;;;;1037693;28;20033;-56
2023/03/06 00:39:01;;;;;;;2.40;1.65;;;;;;;;;;1037787;28;20627;-55
2023/03/06 00:39:32;;;;;;;2.67;1.90;;;;;;;;;;1037418;28;21302;-55
2023/03/06 00:40:07;;;;;;;1.80;1.50;;;;;;;;;;1037819;28;20026;-55
2023/03/06 00:40:38;;;;;;;2.15;1.70;;;;;;;;;;1037527;28;20766;-55
2023/03/06 00:41:10;;;;;;;2.20;1.60;;;;;;;;;;1037823;28;20028;-55
2023/03/06 00:41:41;;;;;;;2.25;1.73;;;;;;;;;;1038788;28;20033;-55
2023/03/06 00:42:12;;;;;;;2.53;1.80;;;;;;;;;;1038298;28;20021;-56
2023/03/06 00:42:44;;;;;;;3.35;1.95;;;;;;;;;;1037744;28;20274;-56
2023/03/06 00:43:14;;;;;;;2.20;1.85;;;;;;;;;;1038430;28;20036;-55
2023/03/06 00:43:46;;;;;;;2.37;2.00;;;;;;;;;;1037813;28;20108;-55
2023/03/06 00:44:16;;;;;;;2.17;1.52;;;;;;;;;;1038532;28;20688;-56
2023/03/06 00:44:47;;;;;;;2.33;1.70;;;;;;;;;;1037743;28;20600;-56
2023/03/06 00:45:18;;;;;;;3.20;2.08;;;;;;;;;;1037412;28;20256;-55
2023/03/06 00:45:49;;;;;;;3.20;2.10;;;;;;;;;;1037993;28;20548;-56
2023/03/06 00:46:20;;;;;;;2.55;1.75;;;;;;;;;;1038095;28;20090;-56
2023/03/06 00:46:51;;;;;;;3.60;1.73;;;;;;;;;;1037891;28;20033;-55
2023/03/06 00:47:22;;;;;;;2.13;1.53;;;;;;;;;;1038049;28;20263;-56
2023/03/06 00:47:53;;;;;;;2.37;2.03;;;;;;;;;;1038707;28;21089;-55
2023/03/06 00:48:24;;;;;;;2.57;1.80;;;;;;;;;;1039114;28;20334;-56
2023/03/06 00:48:55;;;;;;;2.85;1.83;;;;;;;;;;1037535;28;20265;-56
2023/03/06 00:49:26;;;;;;;3.03;1.92;;;;;;;;;;1038535;28;20029;-55
2023/03/06 00:49:57;;;;;;;2.10;1.90;;;;;;;;;;1037378;28;20038;-55
2023/03/06 00:50:28;;;;;;;2.13;1.70;;;;;;;;;;1037470;28;20272;-56
2023/03/06 00:50:59;;;;;;;3.70;2.20;;;;;;;;;;1037918;28;20044;-56
2023/03/06 00:51:30;;;;;;;2.42;1.77;;;;;;;;;;1037698;28;20262;-56
2023/03/06 00:52:01;;;;;;;3.00;1.70;;;;;;;;;;1036676;28;20041;-56
2023/03/06 00:52:32;;;;;;;2.30;2.05;;;;;;;;;;1037881;28;20260;-56
2023/03/06 00:53:03;;;;;;;1.70;1.60;;;;;;;;;;1037976;28;20038;-56
2023/03/06 00:53:34;;;;;;;3.33;1.85;;;;;;;;;;1037621;28;20468;-55
2023/03/06 00:54:05;;;;;;;1.93;1.73;;;;;;;;;;1037414;28;20026;-56
2023/03/06 00:54:36;;;;;;;2.05;1.75;;;;;;;;;;1038853;28;20916;-56
2023/03/06 00:55:07;;;;;;;2.42;1.92;;;;;;;;;;1037997;28;20108;-56
2023/03/06 00:55:38;;;;;;;1.98;1.80;;;;;;;;;;1036276;28;20040;-55
2023/03/06 00:56:09;;;;;;;2.13;1.67;;;;;;;;;;1037388;28;20029;-55
2023/03/06 00:56:40;;;;;;;2.42;1.55;;;;;;;;;;1037810;28;20124;-55
2023/03/06 00:57:11;;;;;;;2.53;1.80;;;;;;;;;;1036413;28;20040;-55
2023/03/06 00:57:42;;;;;;;2.92;1.80;;;;;;;;;;1038662;28;20264;-55
2023/03/06 00:58:13;;;;;;;3.40;2.00;;;;;;;;;;1037524;28;20469;-55
2023/03/06 00:58:44;;;;;;;2.70;2.00;;;;;;;;;;1037500;28;20304;-56
2023/03/06 00:59:15;;;;;;;2.30;1.95;;;;;;;;;;1038170;28;20299;-56
2023/03/06 00:59:45;;;;;;;2.77;2.20;;;;;;;;;;1036583;28;20025;-55
2023/03/06 01:00:17;;;;;;;2.47;1.90;;;;;;;;;;1037425;28;20282;-55
2023/03/06 01:00:48;;;;;;;2.40;1.90;;;;;;;;;;1038078;28;20268;-55
2023/03/06 01:01:19;;;;;;;2.90;2.08;;;;;;;;;;1037810;28;20033;-56
2023/03/06 01:01:50;;;;;;;3.38;2.20;;;;;;;;;;1037816;28;20025;-56
2023/03/06 01:02:21;;;;;;;2.83;2.13;;;;;;;;;;1037040;28;20487;-56
2023/03/06 01:02:52;;;;;;;2.53;1.92;;;;;;;;;;1037519;28;20029;-56
2023/03/06 01:03:23;;;;;;;3.53;2.10;;;;;;;;;;1038041;28;20144;-55
2023/03/06 01:03:54;;;;;;;2.47;1.92;;;;;;;;;;1037806;28;20032;-56
2023/03/06 01:04:25;;;;;;;2.88;1.90;;;;;;;;;;1038780;28;20587;-55
2023/03/06 01:04:56;;;;;;;2.50;1.88;;;;;;;;;;1037892;28;21541;-56
2023/03/06 01:05:27;;;;;;;2.60;1.92;;;;;;;;;;1037561;28;20052;-56
2023/03/06 01:05:58;;;;;;;2.72;2.00;;;;;;;;;;1037786;28;20045;-56
2023/03/06 01:06:29;;;;;;;2.92;2.00;;;;;;;;;;1038323;28;20025;-56
2023/03/06 01:07:00;;;;;;;3.03;1.77;;;;;;;;;;1036661;28;20520;-56
2023/03/06 01:07:35;;;;;;;3.50;1.90;;;;;;;;;;1037041;28;20018;-56
2023/03/06 01:08:07;;;;;;;3.00;2.10;;;;;;;;;;1037579;28;20033;-56
2023/03/06 01:08:38;;;;;;;2.47;1.77;;;;;;;;;;1037941;28;20135;-56
2023/03/06 01:09:09;;;;;;;5.00;2.10;;;;;;;;;;1037844;28;20074;-56
2023/03/06 01:09:40;;;;;;;3.00;2.10;;;;;;;;;;1037178;28;20342;-55
2023/03/06 01:10:11;;;;;;;3.03;1.90;;;;;;;;;;1037706;28;20029;-55
2023/03/06 01:10:42;;;;;;;4.03;2.10;;;;;;;;;;1037841;28;20513;-56
2023/03/06 01:11:13;;;;;;;1.90;1.70;;;;;;;;;;1036469;28;20636;-55
2023/03/06 01:11:44;;;;;;;2.63;2.00;;;;;;;;;;1037169;28;20034;-55
2023/03/06 01:12:16;;;;;;;2.20;2.00;;;;;;;;;;1037353;28;20299;-56
2023/03/06 01:12:47;;;;;;;3.65;2.00;;;;;;;;;;1037465;28;20427;-56
2023/03/06 01:13:18;;;;;;;3.10;2.22;;;;;;;;;;1038286;28;20029;-56
2023/03/06 01:13:49;;;;;;;3.70;1.98;;;;;;;;;;1037961;28;20044;-55
2023/03/06 01:14:20;;;;;;;2.67;1.98;;;;;;;;;;1037145;28;20449;-55
2023/03/06 01:14:51;;;;;;;4.63;2.05;;;;;;;;;;1037911;28;20071;-56
2023/03/06 01:15:22;;;;;;;2.75;1.80;;;;;;;;;;1037818;28;20099;-55
2023/03/06 01:15:53;;;;;;;2.30;1.83;;;;;;;;;;1038475;28;21018;-56
2023/03/06 01:16:24;;;;;;;2.58;1.90;;;;;;;;;;1038266;28;20377;-55
2023/03/06 01:16:55;;;;;;;3.03;2.05;;;;;;;;;;1037448;28;20032;-56
2023/03/06 01:17:26;;;;;;;4.10;1.90;;;;;;;;;;1038050;28;20035;-56
2023/03/06 01:17:56;;;;;;;3.67;2.15;;;;;;;;;;1038902;28;20629;-56
2023/03/06 01:18:27;;;;;;;4.07;2.37;;;;;;;;;;1038051;28;20048;-56
2023/03/06 01:18:59;;;;;;;1.70;1.53;;;;;;;;;;1037646;28;20289;-56
2023/03/06 01:19:30;;;;;;;2.70;1.92;;;;;;;;;;1037818;28;20337;-55
2023/03/06 01:20:01;;;;;;;2.63;1.85;;;;;;;;;;1035742;28;20022;-55
2023/03/06 01:20:32;;;;;;;3.13;2.20;;;;;;;;;;1037613;28;20013;-56
2023/03/06 01:21:03;;;;;;;2.35;2.15;;;;;;;;;;1036578;28;20083;-56
2023/03/06 01:21:34;;;;;;;2.70;1.98;;;;;;;;;;1037147;28;20018;-56
2023/03/06 01:22:05;;;;;;;2.17;1.87;;;;;;;;;;1038081;28;20010;-56
2023/03/06 01:22:36;;;;;;;2.55;2.03;;;;;;;;;;1037543;28;20337;-56
2023/03/06 01:23:07;;;;;;;2.70;2.10;;;;;;;;;;1037716;28;22195;-55
2023/03/06 01:23:38;;;;;;;3.20;2.30;;;;;;;;;;1037356;28;20377;-55
2023/03/06 01:24:09;;;;;;;2.42;2.20;;;;;;;;;;1037524;28;20017;-56
2023/03/06 01:24:40;;;;;;;3.45;2.10;;;;;;;;;;1037464;28;20041;-56
2023/03/06 01:25:11;;;;;;;3.63;2.47;;;;;;;;;;1037154;28;20053;-56
2023/03/06 01:25:42;;;;;;;2.72;2.28;;;;;;;;;;1037530;28;20387;-56
2023/03/06 01:26:13;;;;;;;3.27;2.20;;;;;;;;;;1037845;28;20067;-56
2023/03/06 01:26:44;;;;;;;2.33;1.92;;;;;;;;;;1039643;28;20858;-56
2023/03/06 01:27:15;;;;;;;3.00;2.22;;;;;;;;;;1038036;28;20620;-56
2023/03/06 01:27:46;;;;;;;3.25;2.20;;;;;;;;;;1036901;28;20108;-56
2023/03/06 01:28:17;;;;;;;2.10;1.80;;;;;;;;;;1037617;28;20960;-56
2023/03/06 01:28:48;;;;;;;4.43;2.00;;;;;;;;;;1037883;28;20565;-55
2023/03/06 01:29:19;;;;;;;2.50;1.90;;;;;;;;;;1037713;28;20441;-56
2023/03/06 01:29:50;;;;;;;2.92;2.20;;;;;;;;;;1038684;28;20021;-56
2023/03/06 01:30:21;;;;;;;2.40;2.08;;;;;;;;;;1037557;28;20021;-56
2023/03/06 01:30:52;;;;;;;2.63;1.88;;;;;;;;;;1037059;28;20033;-55
2023/03/06 01:31:23;;;;;;;2.60;2.00;;;;;;;;;;1037770;28;20032;-56
2023/03/06 01:31:54;;;;;;;2.42;2.15;;;;;;;;;;1037646;28;20260;-55
2023/03/06 01:32:25;;;;;;;3.67;2.25;;;;;;;;;;1038226;28;20167;-56
2023/03/06 01:32:56;;;;;;;2.67;2.20;;;;;;;;;;1037185;28;20064;-56
2023/03/06 01:33:27;;;;;;;3.00;2.22;;;;;;;;;;1037316;28;20032;-56
2023/03/06 01:33:58;;;;;;;2.20;1.80;;;;;;;;;;1037335;28;20833;-55
2023/03/06 01:34:29;;;;;;;2.80;2.13;;;;;;;;;;1037755;28;20295;-55
2023/03/06 01:35:02;;;;;;;2.40;2.13;;;;;;;;;;1037525;28;20263;-56
2023/03/06 01:35:33;;;;;;;4.70;2.45;;;;;;;;;;1037368;28;20084;-56
2023/03/06 01:36:08;;;;;;;2.47;2.10;;;;;;;;;;1037424;28;20616;-56
2023/03/06 01:36:39;;;;;;;3.65;2.20;;;;;;;;;;1037244;28;20830;-55
2023/03/06 01:37:10;;;;;;;2.85;2.22;;;;;;;;;;1037356;28;20017;-56
2023/03/06 01:37:41;;;;;;;3.63;2.65;;;;;;;;;;1038282;28;20021;-56
2023/03/06 01:38:12;;;;;;;2.67;2.08;;;;;;;;;;1036402;28;20096;-56
2023/03/06 01:38:44;;;;;;;3.33;2.10;;;;;;;;;;1037378;28;20033;-56
2023/03/06 01:39:14;;;;;;;3.28;2.22;;;;;;;;;;1037960;28;20396;-55
2023/03/06 01:39:45;;;;;;;2.17;1.88;;;;;;;;;;1036979;28;20473;-56
2023/03/06 01:40:16;;;;;;;2.53;2.10;;;;;;;;;;1038062;28;20105;-56
2023/03/06 01:40:47;;;;;;;2.50;1.95;;;;;;;;;;1037466;28;20349;-56
2023/03/06 01:41:20;;;;;;;2.80;1.70;;;;;;;;;;1036985;28;20052;-56
2023/03/06 01:41:51;;;;;;;2.40;2.00;;;;;;;;;;1036835;28;20338;-55
2023/03/06 01:42:22;;;;;;;2.33;1.83;;;;;;;;;;1038123;28;20030;-56
2023/03/06 01:42:53;;;;;;;3.25;2.35;;;;;;;;;;1037367;28;20302;-56
2023/03/06 01:43:25;;;;;;;2.95;1.80;;;;;;;;;;1037436;28;20836;-56
2023/03/06 01:43:56;;;;;;;3.25;2.22;;;;;;;;;;1037781;28;20021;-56
2023/03/06 01:44:27;;;;;;;3.03;1.80;;;;;;;;;;1037955;28;20114;-56
2023/03/06 01:45:01;;;;;;;3.72;1.80;;;;;;;;;;1037169;28;20382;-56
2023/03/06 01:45:32;;;;;;;3.78;1.77;;;;;;;;;;1037516;28;20024;-55
2023/03/06 01:46:22;;;;;;;2.20;1.93;;;;;;;;;;1037927;28;20034;-56
2023/03/06 01:46:53;;;;;;;3.25;2.22;;;;;;;;;;1037889;28;20835;-56
2023/03/06 01:47:24;;;;;;;2.72;2.05;;;;;;;;;;1039901;28;20028;-55
2023/03/06 01:47:55;;;;;;;3.05;1.92;;;;;;;;;;1038789;28;20022;-56
2023/03/06 01:48:26;;;;;;;3.75;2.40;;;;;;;;;;1039275;28;20547;-56
2023/03/06 01:48:59;;;;;;;2.28;2.00;;;;;;;;;;1038119;28;20021;-54
2023/03/06 01:49:33;;;;;;;2.13;1.70;;;;;;;;;;1038298;28;20025;-55
2023/03/06 01:50:04;;;;;;;2.88;2.35;;;;;;;;;;1038309;28;20128;-56
2023/03/06 01:50:35;;;;;;;2.20;1.73;;;;;;;;;;1038522;28;20025;-55
2023/03/06 01:51:06;;;;;;;3.03;2.25;;;;;;;;;;1039339;28;20025;-56
2023/03/06 01:51:44;;;;;;;2.95;2.22;;;;;;;;;;1040193;28;20748;-56
2023/03/06 01:52:17;;;;;;;2.63;2.22;;;;;;;;;;1038571;28;20025;-56
2023/03/06 01:52:57;;;;;;;3.20;2.42;;;;;;;;;;1039456;28;20521;-56
2023/03/06 01:53:28;;;;;;;3.42;2.53;;;;;;;;;;1039492;28;20421;-56
2023/03/06 01:54:00;;;;;;;2.80;2.25;;;;;;;;;;1038961;28;20480;-56
2023/03/06 01:54:40;;;;;;;2.92;2.10;;;;;;;;;;1038950;28;20129;-56
2023/03/06 01:55:19;;;;;;;3.35;2.28;;;;;;;;;;1038169;28;20056;-55
2023/03/06 01:55:50;;;;;;;2.85;2.30;;;;;;;;;;1038618;28;20038;-55
2023/03/06 01:56:21;;;;;;;3.20;2.63;;;;;;;;;;1039288;28;20028;-56
2023/03/06 01:56:55;;;;;;;3.30;2.20;;;;;;;;;;1039314;28;20041;-56
2023/03/06 01:57:28;;;;;;;2.60;2.15;;;;;;;;;;1039246;28;20029;-55
2023/03/06 01:58:03;;;;;;;2.95;2.50;;;;;;;;;;1038361;28;20671;-56
2023/03/06 01:58:34;;;;;;;2.97;2.47;;;;;;;;;;1038689;28;20025;-56
2023/03/06 01:59:06;;;;;;;2.85;2.50;;;;;;;;;;1038040;28;20025;-55
2023/03/06 01:59:38;;;;;;;3.10;2.42;;;;;;;;;;1038809;28;20430;-56
2023/03/06 02:00:10;;;;;;;3.55;2.38;;;;;;;;;;1039723;28;20018;-55
2023/03/06 02:00:41;;;;;;;2.38;2.00;;;;;;;;;;1038933;28;20033;-57
2023/03/06 02:01:13;;;;;;;3.10;2.50;;;;;;;;;;1038510;28;20029;-55
2023/03/06 02:01:45;;;;;;;3.35;2.88;;;;;;;;;;1039479;28;20037;-56
2023/03/06 02:02:16;;;;;;;3.13;2.38;;;;;;;;;;1038896;28;20108;-56
2023/03/06 02:02:49;;;;;;;2.57;2.10;;;;;;;;;;1038436;28;20471;-56
2023/03/06 02:03:22;;;;;;;4.72;2.40;;;;;;;;;;1038983;28;20268;-56
2023/03/06 02:03:54;;;;;;;3.33;2.70;;;;;;;;;;1039357;28;20036;-56
2023/03/06 02:04:25;;;;;;;3.67;3.03;;;;;;;;;;1038719;28;20100;-55
2023/03/06 02:04:56;;;;;;;3.40;2.60;;;;;;;;;;1038950;28;20025;-56
2023/03/06 02:05:27;;;;;;;3.00;2.45;;;;;;;;;;1038470;28;20124;-55
2023/03/06 02:05:58;;;;;;;3.05;2.35;;;;;;;;;;1038747;28;20025;-56
2023/03/06 02:06:29;;;;;;;3.40;2.67;;;;;;;;;;1037898;28;20026;-55
2023/03/06 02:07:03;;;;;;;3.08;2.50;;;;;;;;;;1038793;28;20032;-55
2023/03/06 02:07:35;;;;;;;4.25;2.63;;;;;;;;;;1039232;28;20025;-55
2023/03/06 02:08:07;;;;;;;4.72;3.08;;;;;;;;;;1038769;28;20103;-56
2023/03/06 02:08:39;;;;;;;3.58;2.80;;;;;;;;;;1038066;28;20035;-56
2023/03/06 02:09:11;;;;;;;4.03;3.03;;;;;;;;;;1039163;28;20040;-56
2023/03/06 02:09:42;;;;;;;3.78;2.97;;;;;;;;;;1038177;28;20104;-56
2023/03/06 02:10:13;;;;;;;3.35;2.97;;;;;;;;;;1038045;28;20017;-55
2023/03/06 02:11:01;;;;;;;4.10;2.88;;;;;;;;;;1038363;28;20021;-56
2023/03/06 02:11:32;;;;;;;3.10;2.55;;;;;;;;;;1038232;28;20026;-56
2023/03/06 02:12:07;;;;;;;3.15;2.67;;;;;;;;;;1038942;28;20045;-55
2023/03/06 02:12:42;;;;;;;3.60;2.90;;;;;;;;;;1038553;28;20395;-54
2023/03/06 02:13:13;;;;;;;4.20;2.97;;;;;;;;;;1038106;28;20110;-56
2023/03/06 02:13:45;;;;;;;3.78;2.67;;;;;;;;;;1038547;28;20029;-55
2023/03/06 02:14:16;;;;;;;3.65;2.92;;;;;;;;;;1037452;28;20026;-55
2023/03/06 02:14:48;;;;;;;3.65;2.80;;;;;;;;;;1037441;28;20029;-55
2023/03/06 02:15:21;;;;;;;3.85;2.85;;;;;;;;;;1038707;28;20023;-56
2023/03/06 02:15:52;;;;;;;3.55;2.92;;;;;;;;;;1038047;28;20021;-55
2023/03/06 02:16:25;;;;;;;3.72;2.95;;;;;;;;;;1037956;28;20024;-55
2023/03/06 02:16:57;;;;;;;3.20;2.90;;;;;;;;;;1038489;28;20024;-56
2023/03/06 02:17:28;;;;;;;3.50;2.83;;;;;;;;;;1038419;28;20126;-55
2023/03/06 02:18:00;;;;;;;3.47;2.83;;;;;;;;;;1037583;28;20029;-55
2023/03/06 02:18:32;;;;;;;5.28;3.13;;;;;;;;;;1039218;28;20026;-56
2023/03/06 02:19:04;;;;;;;3.58;3.13;;;;;;;;;;1038003;28;20021;-56
2023/03/06 02:19:38;;;;;;;4.70;3.38;;;;;;;;;;1038383;28;20028;-55
2023/03/06 02:20:09;;;;;;;3.95;2.80;;;;;;;;;;1039114;28;20060;-56
2023/03/06 02:20:43;;;;;;;3.07;2.77;;;;;;;;;;1037996;28;20021;-56
2023/03/06 02:21:19;;;;;;;3.97;2.90;;;;;;;;;;1037819;28;20770;-56
2023/03/06 02:21:50;;;;;;;4.25;3.17;;;;;;;;;;1038772;28;20026;-56
2023/03/06 02:22:21;;;;;;;3.70;2.95;;;;;;;;;;1038251;28;20025;-56
2023/03/06 02:22:52;;;;;;;3.17;2.67;;;;;;;;;;1038507;28;20026;-55
2023/03/06 02:23:42;;;;;;;4.10;3.23;;;;;;;;;;1037801;28;20084;-56
2023/03/06 02:24:22;;;;;;;3.83;3.08;;;;;;;;;;1038933;28;21713;-56
2023/03/06 02:24:58;;;;;;;3.75;3.33;;;;;;;;;;1038480;28;20037;-56
2023/03/06 02:25:32;;;;;;;3.63;3.13;;;;;;;;;;1039687;28;20060;-55
2023/03/06 02:26:04;;;;;;;4.38;3.65;;;;;;;;;;1038107;28;20499;-56
2023/03/06 02:26:36;;;;;;;5.47;3.38;;;;;;;;;;1038363;28;20049;-56
2023/03/06 02:27:09;;;;;;;3.97;3.38;;;;;;;;;;1038987;28;20029;-56
2023/03/06 02:27:40;;;;;;;4.30;3.70;;;;;;;;;;1038529;28;20056;-56
2023/03/06 02:28:13;;;;;;;4.53;3.33;;;;;;;;;;1038470;28;20025;-55
2023/03/06 02:28:44;;;;;;;3.67;3.28;;;;;;;;;;1038714;28;20028;-56
2023/03/06 02:29:25;;;;;;;4.60;3.67;;;;;;;;;;1038121;28;20049;-56
2023/03/06 02:29:56;;;;;;;3.58;3.15;;;;;;;;;;1038047;28;20029;-56
2023/03/06 02:30:28;;;;;;;4.00;3.37;;;;;;;;;;1038287;28;20021;-55
2023/03/06 02:30:59;;;;;;;3.85;3.45;;;;;;;;;;1037691;28;20287;-56
2023/03/06 02:31:32;;;;;;;4.40;3.47;;;;;;;;;;1037528;28;20109;-56
2023/03/06 02:32:03;;;;;;;5.00;3.88;;;;;;;;;;1038711;28;20599;-56
2023/03/06 02:32:34;;;;;;;4.47;3.60;;;;;;;;;;1038692;28;20061;-56
2023/03/06 02:33:05;;;;;;;3.95;3.47;;;;;;;;;;1037891;28;20037;-57
2023/03/06 02:33:36;;;;;;;4.18;3.47;;;;;;;;;;1038443;28;20079;-55
2023/03/06 02:34:27;;;;;;;4.65;4.03;;;;;;;;;;1038979;28;20083;-55
2023/03/06 02:34:58;;;;;;;4.75;3.50;;;;;;;;;;1038042;28;20035;-56
2023/03/06 02:35:30;;;;;;;5.05;3.70;;;;;;;;;;1038180;28;20053;-56
2023/03/06 02:36:03;;;;;;;4.38;3.33;;;;;;;;;;1038492;28;20063;-56
2023/03/06 02:36:37;;;;;;;4.78;3.90;;;;;;;;;;1038068;28;20033;-56
2023/03/06 02:37:10;;;;;;;4.88;3.75;;;;;;;;;;1037866;28;20075;-55
2023/03/06 02:37:41;;;;;;;4.45;3.50;;;;;;;;;;1039180;28;20041;-56
2023/03/06 02:38:15;;;;;;;5.03;3.80;;;;;;;;;;1037016;28;20014;-56
2023/03/06 02:38:48;;;;;;;4.47;3.35;;;;;;;;;;1038366;28;21436;-56
2023/03/06 02:39:21;;;;;;;4.90;3.80;;;;;;;;;;1037487;28;20036;-56
2023/03/06 02:39:56;;;;;;;5.13;3.50;;;;;;;;;;1037477;28;20034;-55
2023/03/06 02:40:27;;;;;;;4.80;3.88;;;;;;;;;;1039034;28;20037;-56
2023/03/06 02:40:58;;;;;;;4.22;3.83;;;;;;;;;;1038154;28;20451;-56
2023/03/06 02:41:29;;;;;;;3.90;3.30;;;;;;;;;;1037182;28;20025;-56
2023/03/06 02:42:00;;;;;;;5.07;3.65;;;;;;;;;;1038060;28;20155;-56
2023/03/06 02:42:31;;;;;;;3.93;3.53;;;;;;;;;;1038642;28;20107;-55
2023/03/06 02:43:02;;;;;;;5.13;4.05;;;;;;;;;;1038311;28;20276;-55
2023/03/06 02:43:35;;;;;;;4.47;4.05;;;;;;;;;;1038596;28;20028;-56
2023/03/06 02:44:06;;;;;;;4.30;3.90;;;;;;;;;;1037565;28;20030;-55
2023/03/06 02:44:37;;;;;;;4.47;3.75;;;;;;;;;;1038175;28;21580;-55
2023/03/06 02:45:09;;;;;;;4.60;3.78;;;;;;;;;;1038476;28;20037;-56
2023/03/06 02:45:47;;;;;;;4.78;4.13;;;;;;;;;;1038728;28;20044;-55
2023/03/06 02:46:19;;;;;;;3.95;3.50;;;;;;;;;;1038341;28;20016;-56
2023/03/06 02:46:50;;;;;;;4.45;4.00;;;;;;;;;;1038888;28;20710;-56
2023/03/06 02:47:21;;;;;;;3.90;3.35;;;;;;;;;;1038104;28;20394;-56
2023/03/06 02:47:53;;;;;;;4.30;3.78;;;;;;;;;;1038379;28;20033;-56
2023/03/06 02:48:24;;;;;;;4.60;3.90;;;;;;;;;;1039148;28;20057;-56
2023/03/06 02:48:55;;;;;;;4.18;3.45;;;;;;;;;;1037991;28;20022;-56
2023/03/06 02:49:26;;;;;;;4.63;3.60;;;;;;;;;;1039331;28;20526;-56
2023/03/06 02:49:57;;;;;;;3.70;3.40;;;;;;;;;;1038182;28;20041;-56
2023/03/06 02:50:28;;;;;;;4.15;3.47;;;;;;;;;;1038785;28;20017;-56
2023/03/06 02:50:59;;;;;;;4.38;3.90;;;;;;;;;;1037776;28;20036;-56
2023/03/06 02:51:30;;;;;;;5.00;3.45;;;;;;;;;;1038138;28;20080;-57
2023/03/06 02:52:00;;;;;;;5.10;4.10;;;;;;;;;;1037713;28;20029;-57
2023/03/06 02:52:32;;;;;;;3.60;3.30;;;;;;;;;;1038799;28;20150;-57
2023/03/06 02:53:03;;;;;;;4.43;3.95;;;;;;;;;;1038194;28;20016;-57
2023/03/06 02:53:34;;;;;;;4.93;4.10;;;;;;;;;;1038134;28;20068;-57
2023/03/06 02:54:05;;;;;;;4.00;3.50;;;;;;;;;;1038440;28;20023;-57
2023/03/06 02:54:36;;;;;;;4.65;3.95;;;;;;;;;;1039003;28;20025;-57
2023/03/06 02:55:07;;;;;;;4.60;3.28;;;;;;;;;;1037436;28;20404;-57
2023/03/06 02:55:38;;;;;;;4.03;3.33;;;;;;;;;;1037982;28;20021;-57
2023/03/06 02:56:09;;;;;;;4.18;3.58;;;;;;;;;;1037843;28;20017;-57
2023/03/06 02:56:40;;;;;;;3.45;3.13;;;;;;;;;;1038962;28;20018;-56
2023/03/06 02:57:12;;;;;;;5.18;3.50;;;;;;;;;;1038142;28;20024;-57
2023/03/06 02:57:42;;;;;;;4.20;3.80;;;;;;;;;;1038072;28;20021;-57
2023/03/06 02:58:13;;;;;;;4.03;3.63;;;;;;;;;;1037551;28;20109;-57
2023/03/06 02:58:44;;;;;;;4.47;4.03;;;;;;;;;;1038498;28;20252;-56
2023/03/06 02:59:15;;;;;;;4.07;3.55;;;;;;;;;;1038602;28;20576;-56
2023/03/06 02:59:46;;;;;;;4.70;3.72;;;;;;;;;;1038866;28;20018;-56
2023/03/06 03:00:18;;;;;;;4.07;3.58;;;;;;;;;;1037708;28;20654;-57
2023/03/06 03:00:49;;;;;;;5.00;4.07;;;;;;;;;;1037384;28;20112;-57
2023/03/06 03:01:20;;;;;;;5.45;4.28;;;;;;;;;;1037506;28;20018;-57
2023/03/06 03:01:51;;;;;;;4.22;3.83;;;;;;;;;;1038045;28;20014;-56
2023/03/06 03:02:22;;;;;;;4.13;3.72;;;;;;;;;;1037696;28;20022;-56
2023/03/06 03:02:53;;;;;;;4.95;3.70;;;;;;;;;;1038286;28;20132;-56
2023/03/06 03:03:24;;;;;;;5.00;4.03;;;;;;;;;;1038804;28;20021;-57
2023/03/06 03:03:55;;;;;;;4.50;3.90;;;;;;;;;;1038028;28;20049;-56
2023/03/06 03:04:26;;;;;;;5.73;3.70;;;;;;;;;;1038428;28;20013;-57
2023/03/06 03:04:57;;;;;;;4.50;3.70;;;;;;;;;;1037560;28;20762;-56
2023/03/06 03:05:28;;;;;;;3.97;3.43;;;;;;;;;;1038883;28;20049;-57
2023/03/06 03:06:00;;;;;;;4.68;3.75;;;;;;;;;;1037868;28;20300;-57
2023/03/06 03:06:31;;;;;;;4.50;3.85;;;;;;;;;;1038611;28;20029;-57
2023/03/06 03:07:02;;;;;;;5.05;3.90;;;;;;;;;;1037850;28;20049;-57
2023/03/06 03:07:33;;;;;;;4.53;3.88;;;;;;;;;;1038825;28;20025;-57
2023/03/06 03:08:04;;;;;;;4.05;3.65;;;;;;;;;;1037641;28;20096;-57
2023/03/06 03:08:35;;;;;;;5.03;4.22;;;;;;;;;;1038608;28;20102;-57
2023/03/06 03:09:06;;;;;;;3.80;3.40;;;;;;;;;;1037760;28;20117;-57
2023/03/06 03:09:37;;;;;;;5.18;4.10;;;;;;;;;;1038146;28;20021;-56
2023/03/06 03:10:08;;;;;;;4.38;3.97;;;;;;;;;;1038129;28;20025;-57
2023/03/06 03:10:39;;;;;;;4.32;3.75;;;;;;;;;;1038164;28;20029;-57